Time;durP1;ratioP1;P1;durP2;ratioP2;P2;SDS_P1;SDS_P2;PMS_P1;PMS_P2;Temp;Humidity;BMP_temperature;BMP_pressure;BME280_temperature;BME280_humidity;BME280_pressure;Samples;Min_cycle;Max_cycle;Signal;HPM_P1;HPM_P2
2023/06/14 02:06:33;;;;;;;3.75;1.50;;;;;;;;;;5014012;27;2222057;-65
2023/06/14 02:08:59;;;;;;;6.35;1.92;;;;;;;;;;5071874;28;20044;-65
2023/06/14 02:11:26;;;;;;;4.20;1.70;;;;;;;;;;5075943;28;20064;-65
2023/06/14 02:13:54;;;;;;;3.63;1.85;;;;;;;;;;5052748;28;20175;-65
2023/06/14 02:16:21;;;;;;;4.38;1.50;;;;;;;;;;5064016;28;20059;-66
2023/06/14 02:18:48;;;;;;;9.93;1.92;;;;;;;;;;5054969;28;20056;-66
2023/06/14 02:21:14;;;;;;;4.63;1.88;;;;;;;;;;5057017;28;20112;-65
2023/06/14 02:23:42;;;;;;;6.95;1.88;;;;;;;;;;5074684;28;20198;-66
2023/06/14 02:26:09;;;;;;;2.40;1.57;;;;;;;;;;5063486;28;20058;-67
2023/06/14 02:28:36;;;;;;;7.32;1.85;;;;;;;;;;5094290;28;20317;-66
2023/06/14 02:31:02;;;;;;;6.30;1.90;;;;;;;;;;5073769;28;20083;-66
2023/06/14 02:33:29;;;;;;;7.90;1.73;;;;;;;;;;5094877;28;20090;-66
2023/06/14 02:35:56;;;;;;;3.30;1.65;;;;;;;;;;5071528;28;20052;-66
2023/06/14 02:38:22;;;;;;;5.15;1.90;;;;;;;;;;5088485;27;20131;-66
2023/06/14 02:40:50;;;;;;;7.95;3.70;;;;;;;;;;5091409;28;20135;-66
2023/06/14 02:43:17;;;;;;;16.20;8.68;;;;;;;;;;5077675;28;20047;-65
2023/06/14 02:45:44;;;;;;;6.03;2.38;;;;;;;;;;5070969;28;20056;-66
2023/06/14 02:48:11;;;;;;;6.30;1.90;;;;;;;;;;5086149;28;20105;-66
2023/06/14 02:50:37;;;;;;;7.53;1.83;;;;;;;;;;5075560;28;20162;-66
2023/06/14 02:53:03;;;;;;;4.55;1.77;;;;;;;;;;5095662;28;20066;-66
2023/06/14 02:55:30;;;;;;;6.07;1.90;;;;;;;;;;5070326;28;21427;-65
2023/06/14 02:57:58;;;;;;;5.22;1.73;;;;;;;;;;5077321;28;20079;-65
2023/06/14 03:00:24;;;;;;;6.93;2.15;;;;;;;;;;5066110;28;20358;-67
2023/06/14 03:02:51;;;;;;;5.43;2.20;;;;;;;;;;5076305;28;20056;-66
2023/06/14 03:05:21;;;;;;;5.53;1.77;;;;;;;;;;5091357;28;20060;-66
2023/06/14 03:07:47;;;;;;;3.30;1.63;;;;;;;;;;5090780;28;20090;-66
2023/06/14 03:10:14;;;;;;;3.90;2.10;;;;;;;;;;5086243;28;20075;-66
2023/06/14 03:12:40;;;;;;;3.40;1.50;;;;;;;;;;5095800;27;20060;-66
2023/06/14 03:15:09;;;;;;;5.32;2.10;;;;;;;;;;5083181;27;20047;-66
2023/06/14 03:17:38;;;;;;;7.70;2.10;;;;;;;;;;5078473;28;20060;-66
2023/06/14 03:20:06;;;;;;;2.75;1.70;;;;;;;;;;5078793;28;20056;-66
2023/06/14 03:22:34;;;;;;;5.50;1.98;;;;;;;;;;5074690;28;20170;-66
2023/06/14 03:25:00;;;;;;;4.60;2.10;;;;;;;;;;5050158;28;20067;-66
2023/06/14 03:27:28;;;;;;;8.73;2.05;;;;;;;;;;5078889;28;20091;-66
2023/06/14 03:29:55;;;;;;;5.70;1.70;;;;;;;;;;5080486;28;20120;-66
2023/06/14 03:32:23;;;;;;;4.50;1.73;;;;;;;;;;5069710;28;20067;-66
2023/06/14 03:34:50;;;;;;;6.35;1.88;;;;;;;;;;5075905;28;20059;-66
2023/06/14 03:37:17;;;;;;;2.70;1.58;;;;;;;;;;5059046;28;20044;-66
2023/06/14 03:39:46;;;;;;;10.10;1.90;;;;;;;;;;5079453;28;20167;-65
2023/06/14 03:42:13;;;;;;;5.82;1.85;;;;;;;;;;5072384;28;20055;-66
2023/06/14 03:44:40;;;;;;;8.52;1.63;;;;;;;;;;5078317;28;20136;-65
2023/06/14 03:47:06;;;;;;;3.92;1.77;;;;;;;;;;5061976;28;20055;-65
2023/06/14 03:49:34;;;;;;;4.28;1.70;;;;;;;;;;5076721;28;20101;-65
2023/06/14 03:52:02;;;;;;;2.55;1.35;;;;;;;;;;5078470;28;20082;-66
2023/06/14 03:54:29;;;;;;;3.35;1.60;;;;;;;;;;5068093;28;21246;-66
2023/06/14 03:56:56;;;;;;;4.20;1.70;;;;;;;;;;5060883;28;20048;-65
2023/06/14 03:59:23;;;;;;;3.65;1.58;;;;;;;;;;5076212;28;20056;-66
2023/06/14 04:01:49;;;;;;;3.30;1.75;;;;;;;;;;5059985;28;20040;-65
2023/06/14 04:04:16;;;;;;;5.57;2.38;;;;;;;;;;5064810;28;20059;-67
2023/06/14 04:06:48;;;;;;;4.50;1.73;;;;;;;;;;5052861;28;20107;-66
2023/06/14 04:09:14;;;;;;;5.03;2.17;;;;;;;;;;5067840;28;20096;-65
2023/06/14 04:11:40;;;;;;;3.58;1.48;;;;;;;;;;5096189;28;20048;-66
2023/06/14 04:14:08;;;;;;;4.55;1.85;;;;;;;;;;5073093;28;20132;-66
2023/06/14 04:16:36;;;;;;;3.22;1.33;;;;;;;;;;5073040;28;20052;-66
2023/06/14 04:19:02;;;;;;;3.50;1.67;;;;;;;;;;5075074;28;20072;-66
2023/06/14 04:21:29;;;;;;;4.57;1.98;;;;;;;;;;5062231;28;20052;-65
2023/06/14 04:23:56;;;;;;;5.65;1.80;;;;;;;;;;5057885;28;20192;-66
2023/06/14 04:26:29;;;;;;;5.67;1.77;;;;;;;;;;5071150;28;20166;-66
2023/06/14 04:28:56;;;;;;;4.00;1.80;;;;;;;;;;5055926;28;20306;-66
2023/06/14 04:31:24;;;;;;;3.25;1.60;;;;;;;;;;5062089;28;20167;-66
2023/06/14 04:33:53;;;;;;;3.25;1.35;;;;;;;;;;5079450;28;20079;-66
2023/06/14 04:36:19;;;;;;;3.65;1.70;;;;;;;;;;5047239;28;20055;-65
2023/06/14 04:38:46;;;;;;;13.00;5.40;;;;;;;;;;5078585;28;20172;-65
2023/06/14 04:41:15;;;;;;;5.13;2.50;;;;;;;;;;5075446;28;20062;-65
2023/06/14 04:43:48;;;;;;;3.50;1.63;;;;;;;;;;5059316;28;20058;-66
2023/06/14 04:46:14;;;;;;;5.80;2.20;;;;;;;;;;5041978;28;20048;-66
2023/06/14 04:48:42;;;;;;;13.57;6.07;;;;;;;;;;5077063;28;20059;-65
2023/06/14 04:51:09;;;;;;;10.23;3.90;;;;;;;;;;5063206;28;20072;-66
2023/06/14 04:53:35;;;;;;;5.22;2.00;;;;;;;;;;5072170;28;20070;-65
2023/06/14 04:56:05;;;;;;;5.80;1.75;;;;;;;;;;5068746;28;20060;-65
2023/06/14 04:58:35;;;;;;;11.20;4.45;;;;;;;;;;5070470;28;20064;-66
2023/06/14 05:01:02;;;;;;;8.93;3.47;;;;;;;;;;5071484;28;20119;-66
2023/06/14 05:03:30;;;;;;;6.78;2.22;;;;;;;;;;5072822;28;20048;-66
2023/06/14 05:05:57;;;;;;;4.88;2.05;;;;;;;;;;5049736;28;20044;-65
2023/06/14 05:08:24;;;;;;;3.90;1.40;;;;;;;;;;5052572;28;20133;-66
2023/06/14 05:10:50;;;;;;;3.92;1.70;;;;;;;;;;5053734;28;20043;-66
2023/06/14 05:13:21;;;;;;;3.05;1.50;;;;;;;;;;5056956;28;20060;-66
2023/06/14 05:15:49;;;;;;;7.88;2.40;;;;;;;;;;5023511;28;20135;-66
2023/06/14 05:18:16;;;;;;;25.30;9.23;;;;;;;;;;5050122;28;20052;-65
2023/06/14 05:20:42;;;;;;;6.53;2.83;;;;;;;;;;5056950;28;20135;-65
2023/06/14 05:23:14;;;;;;;3.85;1.65;;;;;;;;;;5054145;28;20060;-66
2023/06/14 05:25:42;;;;;;;4.68;2.22;;;;;;;;;;5056108;28;20048;-65
2023/06/14 05:28:10;;;;;;;4.25;1.73;;;;;;;;;;5051779;28;20141;-66
2023/06/14 05:31:03;;;;;;;6.90;2.08;;;;;;;;;;5057019;28;20131;-66
2023/06/14 05:33:34;;;;;;;4.65;1.55;;;;;;;;;;5074483;28;20170;-67
2023/06/14 05:36:08;;;;;;;5.82;1.58;;;;;;;;;;5043069;28;20056;-67
2023/06/14 05:38:39;;;;;;;4.57;1.63;;;;;;;;;;5053570;28;20067;-66
2023/06/14 05:41:05;;;;;;;4.13;1.40;;;;;;;;;;5057644;28;20059;-66
2023/06/14 05:43:32;;;;;;;4.43;2.38;;;;;;;;;;5053558;28;20048;-64
2023/06/14 05:45:58;;;;;;;6.97;2.17;;;;;;;;;;5022367;28;20106;-64
2023/06/14 05:48:25;;;;;;;4.50;1.63;;;;;;;;;;5053732;28;20434;-64
2023/06/14 05:50:55;;;;;;;6.07;1.58;;;;;;;;;;5059297;28;20072;-65
2023/06/14 05:53:21;;;;;;;5.03;1.73;;;;;;;;;;5058693;28;20382;-65
2023/06/14 05:55:48;;;;;;;4.85;1.90;;;;;;;;;;5058690;28;20060;-65
2023/06/14 05:58:14;;;;;;;7.10;1.80;;;;;;;;;;5047060;28;20080;-66
2023/06/14 06:00:41;;;;;;;3.58;1.55;;;;;;;;;;5058344;28;20076;-65
2023/06/14 06:03:08;;;;;;;4.25;1.77;;;;;;;;;;5053222;28;20067;-65
2023/06/14 06:05:36;;;;;;;5.55;1.98;;;;;;;;;;5051160;28;20063;-65
2023/06/14 06:08:05;;;;;;;4.25;1.95;;;;;;;;;;5052700;28;20060;-65
2023/06/14 06:10:32;;;;;;;2.78;1.52;;;;;;;;;;5075756;28;20052;-65
2023/06/14 06:12:58;;;;;;;3.78;1.75;;;;;;;;;;5071010;28;20080;-66
2023/06/14 06:15:24;;;;;;;2.88;1.40;;;;;;;;;;5052856;28;20114;-66
2023/06/14 06:17:51;;;;;;;7.90;1.63;;;;;;;;;;5058212;28;20139;-65
2023/06/14 06:20:18;;;;;;;4.97;1.83;;;;;;;;;;5046441;28;20072;-65
2023/06/14 06:22:44;;;;;;;4.72;2.05;;;;;;;;;;5058323;28;20088;-66
2023/06/14 06:25:14;;;;;;;6.53;2.05;;;;;;;;;;5046832;28;20147;-66
2023/06/14 06:27:41;;;;;;;8.80;1.88;;;;;;;;;;5055841;28;20063;-66
2023/06/14 06:30:10;;;;;;;3.38;1.52;;;;;;;;;;5048619;28;20151;-67
2023/06/14 06:32:37;;;;;;;4.45;1.63;;;;;;;;;;5061575;28;20102;-66
2023/06/14 06:35:06;;;;;;;7.72;2.15;;;;;;;;;;5049630;28;20144;-67
2023/06/14 06:37:32;;;;;;;5.15;1.85;;;;;;;;;;5056115;28;20119;-66
2023/06/14 06:39:59;;;;;;;6.25;1.42;;;;;;;;;;5052707;28;20150;-66
2023/06/14 06:42:26;;;;;;;5.97;1.80;;;;;;;;;;5051892;28;20060;-66
2023/06/14 06:44:53;;;;;;;3.83;1.70;;;;;;;;;;5033505;28;20057;-67
2023/06/14 06:47:19;;;;;;;5.65;2.03;;;;;;;;;;5056777;28;20382;-67
2023/06/14 06:49:46;;;;;;;3.50;1.60;;;;;;;;;;5055008;28;20059;-67
2023/06/14 06:52:12;;;;;;;3.85;2.00;;;;;;;;;;5053728;28;20067;-67
2023/06/14 06:54:39;;;;;;;4.13;1.63;;;;;;;;;;5041845;28;20060;-67
2023/06/14 06:57:06;;;;;;;4.18;1.90;;;;;;;;;;5060157;28;20048;-66
2023/06/14 06:59:33;;;;;;;3.83;1.67;;;;;;;;;;5058780;28;20110;-67
2023/06/14 07:02:05;;;;;;;8.05;2.08;;;;;;;;;;5057789;28;20056;-67
2023/06/14 07:04:32;;;;;;;7.63;2.08;;;;;;;;;;5057827;28;20327;-66
2023/06/14 07:06:58;;;;;;;3.38;1.52;;;;;;;;;;5056331;28;20140;-67
2023/06/14 07:09:25;;;;;;;10.75;1.90;;;;;;;;;;5070145;28;20091;-67
2023/06/14 07:11:51;;;;;;;6.05;1.50;;;;;;;;;;5061755;28;20079;-67
2023/06/14 07:14:18;;;;;;;6.88;1.85;;;;;;;;;;5053143;28;20130;-68
2023/06/14 07:16:46;;;;;;;2.22;1.38;;;;;;;;;;5055797;28;20113;-67
2023/06/14 07:19:13;;;;;;;8.93;2.30;;;;;;;;;;5059204;28;20118;-66
2023/06/14 07:21:39;;;;;;;5.13;1.75;;;;;;;;;;5059048;28;20080;-66
2023/06/14 07:24:07;;;;;;;7.15;1.55;;;;;;;;;;5055857;28;20064;-67
2023/06/14 07:26:34;;;;;;;4.18;1.85;;;;;;;;;;5052618;28;20066;-67
2023/06/14 07:29:00;;;;;;;6.53;1.70;;;;;;;;;;5043785;28;20071;-66
2023/06/14 07:31:27;;;;;;;4.97;1.70;;;;;;;;;;5042664;28;20060;-67
2023/06/14 07:33:55;;;;;;;9.82;2.00;;;;;;;;;;5059852;28;20056;-66
2023/06/14 07:36:21;;;;;;;3.22;1.50;;;;;;;;;;5047659;28;20056;-67
2023/06/14 07:38:47;;;;;;;5.90;2.05;;;;;;;;;;5064631;28;20045;-67
2023/06/14 07:41:14;;;;;;;5.70;1.73;;;;;;;;;;5060454;28;20157;-67
2023/06/14 07:43:40;;;;;;;7.35;2.10;;;;;;;;;;5068401;28;20053;-66
2023/06/14 07:46:08;;;;;;;2.85;1.42;;;;;;;;;;5028410;28;20067;-65
2023/06/14 07:48:34;;;;;;;5.05;1.92;;;;;;;;;;5053896;28;20064;-66
2023/06/14 07:51:02;;;;;;;2.83;1.45;;;;;;;;;;5059538;28;20084;-65
2023/06/14 07:53:28;;;;;;;4.20;1.63;;;;;;;;;;5077503;28;20052;-66
2023/06/14 07:55:57;;;;;;;3.10;1.55;;;;;;;;;;5061663;28;20052;-66
2023/06/14 07:58:23;;;;;;;3.03;1.52;;;;;;;;;;5051011;28;20056;-66
2023/06/14 08:00:53;;;;;;;4.75;2.00;;;;;;;;;;5076352;28;20056;-66
2023/06/14 08:03:19;;;;;;;3.95;1.45;;;;;;;;;;5059977;28;20068;-65
2023/06/14 08:05:45;;;;;;;6.88;1.45;;;;;;;;;;5055555;28;20056;-66
2023/06/14 08:08:13;;;;;;;6.28;2.75;;;;;;;;;;5051994;28;20048;-66
2023/06/14 08:10:40;;;;;;;5.05;1.40;;;;;;;;;;5086578;28;20060;-66
2023/06/14 08:13:06;;;;;;;4.85;1.33;;;;;;;;;;5077109;28;20071;-66
2023/06/14 08:15:33;;;;;;;4.18;1.30;;;;;;;;;;5076286;28;20062;-66
2023/06/14 08:18:01;;;;;;;3.13;1.50;;;;;;;;;;5058114;28;20071;-66
2023/06/14 08:20:27;;;;;;;3.80;1.23;;;;;;;;;;5077350;28;20062;-66
2023/06/14 08:22:56;;;;;;;4.05;1.70;;;;;;;;;;5062167;28;20137;-66
2023/06/14 08:25:26;;;;;;;2.05;1.15;;;;;;;;;;5072802;28;20270;-66
2023/06/14 08:27:52;;;;;;;3.50;1.30;;;;;;;;;;5078879;28;20296;-67
2023/06/14 08:30:19;;;;;;;3.65;1.42;;;;;;;;;;5069141;28;20060;-66
2023/06/14 08:32:45;;;;;;;2.45;1.10;;;;;;;;;;5080209;28;20083;-66
2023/06/14 08:35:12;;;;;;;1.98;1.10;;;;;;;;;;5054891;28;20123;-66
2023/06/14 08:37:42;;;;;;;12.90;1.40;;;;;;;;;;5084332;28;20052;-65
2023/06/14 08:40:18;;;;;;;3.42;1.00;;;;;;;;;;5052128;28;20056;-67
2023/06/14 08:42:46;;;;;;;3.20;1.20;;;;;;;;;;5061440;28;20054;-66
2023/06/14 08:45:13;;;;;;;1.48;1.10;;;;;;;;;;5074071;28;20051;-65
2023/06/14 08:47:39;;;;;;;4.18;1.40;;;;;;;;;;5080317;28;20128;-65
2023/06/14 08:50:07;;;;;;;2.20;1.13;;;;;;;;;;5072510;28;20059;-66
2023/06/14 08:52:40;;;;;;;2.83;1.20;;;;;;;;;;5080336;28;20078;-64
2023/06/14 08:55:06;;;;;;;1.75;1.00;;;;;;;;;;5073744;28;20067;-64
2023/06/14 08:57:37;;;;;;;2.65;1.30;;;;;;;;;;5080053;28;20047;-64
2023/06/14 09:00:11;;;;;;;2.53;1.30;;;;;;;;;;5057978;28;20055;-63
2023/06/14 09:02:38;;;;;;;3.97;1.50;;;;;;;;;;5077508;28;20055;-67
2023/06/14 09:05:04;;;;;;;1.65;1.00;;;;;;;;;;5054963;28;20056;-65
2023/06/14 09:07:31;;;;;;;1.42;0.90;;;;;;;;;;5059708;28;20152;-66
2023/06/14 09:10:10;;;;;;;2.33;1.20;;;;;;;;;;5057893;28;20062;-66
2023/06/14 09:12:37;;;;;;;3.20;1.10;;;;;;;;;;5060206;28;20124;-66
2023/06/14 09:15:08;;;;;;;1.65;1.20;;;;;;;;;;5044527;28;20062;-68
2023/06/14 09:17:35;;;;;;;5.00;1.23;;;;;;;;;;5060753;28;20142;-65
2023/06/14 09:20:05;;;;;;;2.42;1.20;;;;;;;;;;5077411;28;20071;-65
2023/06/14 09:22:32;;;;;;;2.42;1.13;;;;;;;;;;5072943;28;20075;-64
2023/06/14 09:24:59;;;;;;;3.92;1.15;;;;;;;;;;5058274;28;20055;-65
2023/06/14 09:27:26;;;;;;;3.22;1.30;;;;;;;;;;5076443;28;20176;-64
2023/06/14 09:29:53;;;;;;;0.90;0.80;;;;;;;;;;5078066;28;20094;-64
2023/06/14 09:32:21;;;;;;;7.55;1.20;;;;;;;;;;5068162;28;20116;-64
2023/06/14 09:34:47;;;;;;;2.55;1.35;;;;;;;;;;5075284;28;20059;-64
2023/06/14 09:37:14;;;;;;;1.77;1.05;;;;;;;;;;5078776;28;20125;-65
2023/06/14 09:39:50;;;;;;;4.50;1.20;;;;;;;;;;5063318;28;20056;-64
2023/06/14 09:42:19;;;;;;;3.20;1.40;;;;;;;;;;5049118;28;20069;-65
2023/06/14 09:44:45;;;;;;;3.20;0.95;;;;;;;;;;5074997;28;20068;-65
2023/06/14 09:47:12;;;;;;;3.53;1.40;;;;;;;;;;5074899;28;20064;-65
2023/06/14 09:49:40;;;;;;;3.45;1.23;;;;;;;;;;5058912;28;20066;-64
2023/06/14 09:52:07;;;;;;;2.47;1.23;;;;;;;;;;5049454;28;20148;-65
2023/06/14 09:54:35;;;;;;;5.57;1.17;;;;;;;;;;5077577;28;20066;-66
2023/06/14 09:57:03;;;;;;;3.33;1.10;;;;;;;;;;5074098;28;20048;-64
2023/06/14 09:59:32;;;;;;;1.30;1.10;;;;;;;;;;5079639;28;20056;-65
2023/06/14 10:01:59;;;;;;;2.20;1.20;;;;;;;;;;5075748;28;20082;-65
2023/06/14 10:04:28;;;;;;;3.95;1.27;;;;;;;;;;5055106;28;20055;-66
2023/06/14 10:06:56;;;;;;;2.08;1.25;;;;;;;;;;5066692;28;20130;-64
2023/06/14 10:09:23;;;;;;;2.70;1.27;;;;;;;;;;5085213;28;20152;-65
2023/06/14 10:11:50;;;;;;;2.58;1.05;;;;;;;;;;5097064;28;20052;-64
2023/06/14 10:14:18;;;;;;;2.72;1.30;;;;;;;;;;5069025;28;20052;-65
2023/06/14 10:16:48;;;;;;;2.42;1.05;;;;;;;;;;5066037;28;20143;-64
2023/06/14 10:19:17;;;;;;;3.55;1.48;;;;;;;;;;5076974;28;20060;-64
2023/06/14 10:21:48;;;;;;;2.80;1.25;;;;;;;;;;5076999;28;20052;-64
2023/06/14 10:24:17;;;;;;;2.45;1.10;;;;;;;;;;5068661;28;20067;-65
2023/06/14 10:26:51;;;;;;;2.88;1.48;;;;;;;;;;5039750;28;20135;-65
2023/06/14 10:29:17;;;;;;;1.40;1.10;;;;;;;;;;5078500;28;20060;-65
2023/06/14 10:31:44;;;;;;;2.35;1.10;;;;;;;;;;5081478;28;20060;-65
2023/06/14 10:34:11;;;;;;;5.07;1.25;;;;;;;;;;5053601;28;20060;-66
2023/06/14 10:36:40;;;;;;;1.83;1.10;;;;;;;;;;5060202;28;20142;-65
2023/06/14 10:39:08;;;;;;;2.55;1.27;;;;;;;;;;5078338;28;20048;-65
2023/06/14 10:41:37;;;;;;;2.05;1.17;;;;;;;;;;5081647;28;20071;-65
2023/06/14 10:44:22;;;;;;;1.88;1.17;;;;;;;;;;5058057;28;20048;-64
2023/06/14 10:46:50;;;;;;;2.45;1.27;;;;;;;;;;5079179;28;20056;-64
2023/06/14 10:49:19;;;;;;;3.38;1.30;;;;;;;;;;5077371;28;20071;-64
2023/06/14 10:51:47;;;;;;;6.05;1.40;;;;;;;;;;5082437;28;20059;-67
2023/06/14 10:54:15;;;;;;;1.92;1.02;;;;;;;;;;5054078;28;20222;-65
2023/06/14 10:56:48;;;;;;;6.10;1.30;;;;;;;;;;5079806;28;20056;-64
2023/06/14 10:59:14;;;;;;;2.03;1.05;;;;;;;;;;5079889;28;20195;-66
2023/06/14 11:01:43;;;;;;;4.07;1.23;;;;;;;;;;5063218;28;20101;-66
2023/06/14 11:04:10;;;;;;;4.03;1.30;;;;;;;;;;5073912;28;20135;-67
2023/06/14 11:06:47;;;;;;;4.82;1.13;;;;;;;;;;5076471;28;20075;-65
2023/06/14 11:09:41;;;;;;;2.38;1.42;;;;;;;;;;5070546;28;20150;-65
2023/06/14 11:12:11;;;;;;;2.70;1.30;;;;;;;;;;5057862;28;20147;-67
2023/06/14 11:14:38;;;;;;;4.60;1.10;;;;;;;;;;5059681;28;20071;-66
2023/06/14 11:17:05;;;;;;;1.40;0.98;;;;;;;;;;5060845;28;20380;-66
2023/06/14 11:19:31;;;;;;;3.97;1.20;;;;;;;;;;5060786;28;20063;-65
2023/06/14 11:21:58;;;;;;;2.22;1.27;;;;;;;;;;5060344;28;20055;-67
2023/06/14 11:24:24;;;;;;;5.88;1.13;;;;;;;;;;5072579;28;20055;-66
2023/06/14 11:26:50;;;;;;;3.67;1.30;;;;;;;;;;5075233;28;20071;-67
2023/06/14 11:29:21;;;;;;;4.18;1.92;;;;;;;;;;5079948;28;20144;-66
2023/06/14 11:31:47;;;;;;;1.80;0.95;;;;;;;;;;5079183;28;20064;-68
2023/06/14 11:34:15;;;;;;;2.70;1.20;;;;;;;;;;5058401;28;20079;-66
2023/06/14 11:36:41;;;;;;;1.20;0.85;;;;;;;;;;5047976;28;20064;-67
2023/06/14 11:39:08;;;;;;;5.65;1.40;;;;;;;;;;5043117;28;20066;-64
2023/06/14 11:41:37;;;;;;;3.67;1.15;;;;;;;;;;5063241;28;20075;-65
2023/06/14 11:44:05;;;;;;;2.20;1.25;;;;;;;;;;5064334;28;20044;-66
2023/06/14 11:46:33;;;;;;;4.03;1.10;;;;;;;;;;5063191;28;20064;-66
2023/06/14 11:49:02;;;;;;;3.53;1.10;;;;;;;;;;5059543;28;20066;-65
2023/06/14 11:51:29;;;;;;;5.20;1.40;;;;;;;;;;5063687;28;20165;-65
2023/06/14 11:53:55;;;;;;;4.13;1.48;;;;;;;;;;5079214;28;20051;-66
2023/06/14 11:56:45;;;;;;;3.08;1.27;;;;;;;;;;5031572;28;20056;-66
2023/06/14 11:59:16;;;;;;;1.52;0.98;;;;;;;;;;5083379;28;20143;-65
2023/06/14 12:01:58;;;;;;;1.20;0.90;;;;;;;;;;5080241;28;20060;-66
2023/06/14 12:04:29;;;;;;;2.42;1.17;;;;;;;;;;5043196;28;20335;-66
2023/06/14 12:07:14;;;;;;;1.88;1.10;;;;;;;;;;5061224;28;20051;-67
2023/06/14 12:09:43;;;;;;;1.92;1.08;;;;;;;;;;5099176;28;20063;-67
2023/06/14 12:12:10;;;;;;;2.55;0.95;;;;;;;;;;5088920;28;20152;-66
2023/06/14 12:14:37;;;;;;;2.75;1.00;;;;;;;;;;5079351;28;20059;-66
2023/06/14 12:17:07;;;;;;;2.00;1.30;;;;;;;;;;5065280;28;20119;-67
2023/06/14 12:19:42;;;;;;;8.70;1.20;;;;;;;;;;5076256;28;20159;-67
2023/06/14 12:22:10;;;;;;;6.93;1.38;;;;;;;;;;5080785;28;20135;-68
2023/06/14 12:24:39;;;;;;;2.92;1.10;;;;;;;;;;5076170;28;20048;-66
2023/06/14 12:27:08;;;;;;;2.53;1.15;;;;;;;;;;5048381;28;20059;-65
2023/06/14 12:29:34;;;;;;;3.42;1.33;;;;;;;;;;5076999;28;20060;-66
2023/06/14 12:32:12;;;;;;;3.30;1.25;;;;;;;;;;5080427;28;20059;-66
2023/06/14 12:34:49;;;;;;;4.07;1.50;;;;;;;;;;5057199;28;20115;-66
2023/06/14 12:37:20;;;;;;;2.30;0.95;;;;;;;;;;5066300;28;20051;-66
2023/06/14 12:39:50;;;;;;;2.42;1.10;;;;;;;;;;5059039;28;20109;-66
2023/06/14 12:42:17;;;;;;;3.95;1.38;;;;;;;;;;5074806;28;20064;-65
2023/06/14 12:44:43;;;;;;;3.33;1.15;;;;;;;;;;5073031;28;20064;-67
2023/06/14 12:47:10;;;;;;;2.80;1.40;;;;;;;;;;5075378;28;20052;-66
2023/06/14 12:49:36;;;;;;;1.67;0.90;;;;;;;;;;5077684;28;20068;-67
2023/06/14 12:52:07;;;;;;;3.55;1.60;;;;;;;;;;5060634;28;20120;-66
2023/06/14 12:54:34;;;;;;;2.28;1.17;;;;;;;;;;5059554;28;20147;-67
2023/06/14 12:57:01;;;;;;;2.47;1.23;;;;;;;;;;5041215;28;20068;-67
2023/06/14 12:59:32;;;;;;;4.63;1.40;;;;;;;;;;5024907;28;20073;-65
2023/06/14 13:02:00;;;;;;;2.80;1.10;;;;;;;;;;5080266;28;20075;-66
2023/06/14 13:04:27;;;;;;;1.45;0.93;;;;;;;;;;5068847;28;20173;-66
2023/06/14 13:06:53;;;;;;;1.83;1.20;;;;;;;;;;5032743;28;20049;-66
2023/06/14 13:09:43;;;;;;;1.38;0.90;;;;;;;;;;5041784;28;20062;-67
2023/06/14 13:12:11;;;;;;;1.77;1.05;;;;;;;;;;5048835;28;20043;-66
2023/06/14 13:14:40;;;;;;;3.75;1.27;;;;;;;;;;5093430;28;20834;-67
2023/06/14 13:17:07;;;;;;;4.28;1.90;;;;;;;;;;5076992;28;20055;-67
2023/06/14 13:19:33;;;;;;;2.22;1.05;;;;;;;;;;5076626;28;20055;-68
2023/06/14 13:22:03;;;;;;;4.32;1.30;;;;;;;;;;5058506;28;20109;-66
2023/06/14 13:24:33;;;;;;;1.50;1.00;;;;;;;;;;5058234;28;20048;-66
2023/06/14 13:27:02;;;;;;;1.75;1.00;;;;;;;;;;5072865;28;20051;-66
2023/06/14 13:29:30;;;;;;;5.03;1.40;;;;;;;;;;5078025;28;20111;-64
2023/06/14 13:31:58;;;;;;;;;;;;;;;;;;5080668;28;20071;-65
2023/06/14 13:34:28;;;;;;;1.77;1.13;;;;;;;;;;5055057;28;19996;-66
2023/06/14 13:36:55;;;;;;;2.15;1.13;;;;;;;;;;5042464;28;20083;-66
2023/06/14 13:39:24;;;;;;;2.83;1.30;;;;;;;;;;5062147;28;20052;-66
2023/06/14 13:41:52;;;;;;;2.42;1.20;;;;;;;;;;5069513;28;20090;-66
2023/06/14 13:44:21;;;;;;;;;;;;;;;;;;5052955;28;20159;-66
2023/06/14 13:46:50;;;;;;;1.50;1.10;;;;;;;;;;5037170;28;20129;-67
2023/06/14 13:49:16;;;;;;;3.10;1.20;;;;;;;;;;5076712;28;20152;-66
2023/06/14 13:51:44;;;;;;;2.17;0.95;;;;;;;;;;5076442;28;20067;-65
2023/06/14 13:54:13;;;;;;;2.28;1.10;;;;;;;;;;5069120;28;20048;-67
2023/06/14 13:56:39;;;;;;;3.53;1.30;;;;;;;;;;5063599;28;20141;-66
2023/06/14 13:59:07;;;;;;;2.15;0.98;;;;;;;;;;5077250;28;20056;-66
2023/06/14 14:01:33;;;;;;;;;;;;;;;;;;5056405;28;20075;-66
2023/06/14 14:04:01;;;;;;;1.88;0.90;;;;;;;;;;5077005;28;19920;-67
2023/06/14 14:06:31;;;;;;;1.88;1.00;;;;;;;;;;5044589;28;20143;-67
2023/06/14 14:08:57;;;;;;;4.55;1.00;;;;;;;;;;5063085;28;20088;-66
2023/06/14 14:11:24;;;;;;;4.80;1.20;;;;;;;;;;5077552;28;20087;-67
2023/06/14 14:13:50;;;;;;;2.92;0.98;;;;;;;;;;5054212;28;20068;-67
2023/06/14 14:16:18;;;;;;;3.38;1.00;;;;;;;;;;5047557;28;20052;-66
2023/06/14 14:18:45;;;;;;;2.08;0.90;;;;;;;;;;5058138;28;20148;-65
2023/06/14 14:21:11;;;;;;;1.58;1.00;;;;;;;;;;5047693;28;20060;-65
2023/06/14 14:23:38;;;;;;;2.47;1.20;;;;;;;;;;5058678;28;20067;-65
2023/06/14 14:26:07;;;;;;;2.83;1.00;;;;;;;;;;5055648;28;20066;-67
2023/06/14 14:28:34;;;;;;;1.45;0.88;;;;;;;;;;5060457;28;20060;-66
2023/06/14 14:31:01;;;;;;;1.77;0.80;;;;;;;;;;5060155;28;20053;-66
2023/06/14 14:33:28;;;;;;;8.32;4.95;;;;;;;;;;5057318;28;20064;-65
2023/06/14 14:35:57;;;;;;;6.18;4.10;;;;;;;;;;5048428;28;20085;-65
2023/06/14 14:38:25;;;;;;;3.92;1.15;;;;;;;;;;5046345;28;20055;-67
2023/06/14 14:40:52;;;;;;;1.95;0.90;;;;;;;;;;5044647;28;20059;-65
2023/06/14 14:43:19;;;;;;;1.80;0.90;;;;;;;;;;5057759;28;20084;-65
2023/06/14 14:45:46;;;;;;;1.27;0.90;;;;;;;;;;5044253;28;20062;-66
2023/06/14 14:48:12;;;;;;;1.50;0.98;;;;;;;;;;5050992;28;20129;-66
2023/06/14 14:50:40;;;;;;;1.33;0.90;;;;;;;;;;5060939;28;20071;-65
2023/06/14 14:53:06;;;;;;;;;;;;;;;;;;5043421;28;20152;-67
2023/06/14 14:55:34;;;;;;;1.80;1.15;;;;;;;;;;5056455;28;19928;-67
2023/06/14 14:58:11;;;;;;;;;;;;;;;;;;;;;
2023/06/14 15:00:37;;;;;;;2.73;0.97;;;;;;;;;;5056739;28;20060;-65
2023/06/14 15:03:04;;;;;;;1.30;0.80;;;;;;;;;;5060442;28;20070;-65
2023/06/14 15:05:30;;;;;;;3.97;1.10;;;;;;;;;;5033578;28;20143;-65
2023/06/14 15:07:59;;;;;;;1.23;0.90;;;;;;;;;;5059798;28;20120;-65
2023/06/14 15:10:26;;;;;;;1.00;0.80;;;;;;;;;;5050055;28;20052;-64
2023/06/14 15:12:52;;;;;;;2.20;1.00;;;;;;;;;;5060043;28;20055;-65
2023/06/14 15:15:19;;;;;;;2.13;1.00;;;;;;;;;;5048172;28;20053;-67
2023/06/14 15:17:45;;;;;;;1.33;1.00;;;;;;;;;;5062565;28;20131;-66
2023/06/14 15:20:12;;;;;;;2.55;1.10;;;;;;;;;;5056390;28;20147;-66
2023/06/14 15:22:39;;;;;;;1.60;0.90;;;;;;;;;;5067530;28;20115;-66
2023/06/14 15:25:15;;;;;;;0.77;0.75;;;;;;;;;;5020937;28;20055;-67
2023/06/14 15:27:42;;;;;;;2.00;1.02;;;;;;;;;;5076851;28;20147;-67
2023/06/14 15:30:12;;;;;;;1.85;1.15;;;;;;;;;;5057437;28;20040;-66
2023/06/14 15:32:38;;;;;;;1.08;0.88;;;;;;;;;;5066642;28;20080;-67
2023/06/14 15:35:05;;;;;;;2.05;1.00;;;;;;;;;;5058714;28;20068;-66
2023/06/14 15:37:31;;;;;;;3.42;1.02;;;;;;;;;;5045403;28;20056;-66
2023/06/14 15:39:58;;;;;;;1.90;0.90;;;;;;;;;;5043797;28;20083;-67
2023/06/14 15:42:28;;;;;;;2.35;1.00;;;;;;;;;;5057995;28;20068;-66
2023/06/14 15:47:50;;;;;;;6.95;2.20;;;;;;;;;;5076115;28;20078;-67
2023/06/14 15:50:17;;;;;;;2.83;1.50;;;;;;;;;;5050554;28;20052;-68
2023/06/14 15:52:47;;;;;;;3.10;1.70;;;;;;;;;;5056335;28;20059;-67
2023/06/14 15:56:12;;;;;;;2.30;1.40;;;;;;;;;;5053073;28;20048;-69
2023/06/14 16:02:13;;;;;;;1.38;0.90;;;;;;;;;;5073441;28;20055;-69
2023/06/14 16:04:40;;;;;;;1.30;0.93;;;;;;;;;;5081877;28;20040;-70
2023/06/14 16:07:06;;;;;;;1.88;0.85;;;;;;;;;;5041637;28;20110;-67
2023/06/14 16:09:35;;;;;;;2.58;1.13;;;;;;;;;;5056036;28;20056;-68
2023/06/14 16:12:02;;;;;;;2.22;1.02;;;;;;;;;;5077808;28;20036;-69
2023/06/14 16:14:30;;;;;;;1.63;1.10;;;;;;;;;;5060813;28;20226;-68
2023/06/14 16:16:56;;;;;;;;;;;;;;;;;;5070247;28;20080;-68
2023/06/14 16:19:22;;;;;;;1.98;1.00;;;;;;;;;;5057911;28;19955;-70
2023/06/14 16:21:49;;;;;;;7.70;1.50;;;;;;;;;;5071141;28;20142;-68
2023/06/14 16:24:17;;;;;;;2.78;1.20;;;;;;;;;;5070260;28;20148;-69
2023/06/14 16:26:44;;;;;;;2.97;1.23;;;;;;;;;;5065457;28;20074;-69
2023/06/14 16:29:10;;;;;;;1.85;1.00;;;;;;;;;;5076421;28;20060;-68
2023/06/14 16:31:38;;;;;;;1.40;1.00;;;;;;;;;;5078951;28;20059;-68
2023/06/14 16:34:09;;;;;;;2.10;1.02;;;;;;;;;;5070513;28;20064;-68
2023/06/14 16:36:36;;;;;;;1.55;1.00;;;;;;;;;;5050081;28;20048;-68
2023/06/14 16:39:02;;;;;;;1.75;0.98;;;;;;;;;;5055894;28;20063;-68
2023/06/14 16:41:28;;;;;;;3.15;1.42;;;;;;;;;;5077100;28;20098;-68
2023/06/14 16:43:55;;;;;;;2.47;1.25;;;;;;;;;;5070801;28;20148;-68
2023/06/14 16:46:28;;;;;;;2.38;1.40;;;;;;;;;;5053948;28;20055;-68
2023/06/14 16:48:56;;;;;;;1.52;1.10;;;;;;;;;;5071585;28;20071;-68
2023/06/14 16:51:22;;;;;;;;;;;;;;;;;;5077731;28;20129;-68
2023/06/14 16:53:48;;;;;;;3.47;1.25;;;;;;;;;;5075729;28;19924;-68
2023/06/14 16:56:15;;;;;;;40.92;26.92;;;;;;;;;;5065883;28;20059;-68
2023/06/14 16:58:41;;;;;;;2.63;1.50;;;;;;;;;;5071301;28;20147;-67
2023/06/14 17:01:10;;;;;;;2.15;1.13;;;;;;;;;;5075773;28;20052;-68
2023/06/14 17:03:36;;;;;;;2.28;1.10;;;;;;;;;;5053206;28;20445;-68